Time;durP1;ratioP1;P1;durP2;ratioP2;P2;SDS_P1;SDS_P2;PMS_P1;PMS_P2;Temp;Humidity;BMP_temperature;BMP_pressure;BME280_temperature;BME280_humidity;BME280_pressure;Samples;Min_cycle;Max_cycle;Signal;HPM_P1;HPM_P2
2022/12/08 16:04:02;;;;;;;17.98;9.07;;;;;;;;;;5091719;27;20503;-87
2022/12/08 16:06:28;;;;;;;15.60;8.60;;;;;;;;;;5086830;28;20037;-88
2022/12/08 16:08:54;;;;;;;16.63;8.48;;;;;;;;;;5090955;28;20021;-87
2022/12/08 16:14:05;;;;;;;18.15;8.85;;;;;;;;;;5070901;28;20438;-86
2022/12/08 16:16:31;;;;;;;18.15;8.75;;;;;;;;;;5063126;28;20029;-85
2022/12/08 16:18:57;;;;;;;18.95;8.60;;;;;;;;;;5062415;28;20370;-86
2022/12/08 16:21:24;;;;;;;15.43;8.35;;;;;;;;;;5066336;28;20208;-84
2022/12/08 16:23:50;;;;;;;17.05;8.27;;;;;;;;;;5064944;28;20629;-82
2022/12/08 16:26:19;;;;;;;15.50;8.05;;;4.90;99.90;;;;;;5059831;28;20029;-85
2022/12/08 16:28:45;;;;;;;15.38;8.15;;;;;;;;;;5065467;28;20043;-82
2022/12/08 16:31:12;;;;;;;17.83;8.77;;;5.00;99.90;;;;;;5066356;28;20434;-84
2022/12/08 16:33:39;;;;;;;17.52;8.55;;;;;;;;;;5059363;28;20029;-83
2022/12/08 17:12:50;;;;;;;18.00;8.93;;;4.70;99.90;;;;;;4993927;28;20054;-81
2022/12/08 17:15:53;;;;;;;19.88;8.65;;;4.70;99.90;;;;;;4972577;28;20546;-82
2022/12/08 17:23:00;;;;;;;23.42;9.80;;;4.80;99.90;;;;;;4983193;28;20058;-81
2022/12/08 17:26:08;;;;;;;20.60;9.45;;;4.80;99.90;;;;;;4939957;29;20039;-82
2022/12/08 17:32:36;;;;;;;19.55;8.57;;;;;;;;;;4966605;29;20101;-82
2022/12/08 17:35:38;;;;;;;19.60;9.43;;;;;;;;;;4956633;29;20032;-82
2022/12/08 17:45:40;;;;;;;18.70;9.15;;;4.70;99.90;;;;;;4915679;29;20084;-83
2022/12/08 17:49:43;;;;;;;16.55;8.27;;;4.70;99.90;;;;;;4901653;29;21169;-83
2022/12/08 17:59:24;;;;;;;18.33;8.35;;;;;;;;;;4889648;29;20438;-82
2022/12/08 18:09:00;;;;;;;20.40;10.07;;;;;;;;;;4826627;29;20079;-82
2022/12/08 18:37:06;;;;;;;21.55;10.48;;;4.70;99.90;;;;;;4964709;28;20034;-81
2022/12/08 18:43:48;;;;;;;20.25;9.85;;;;;;;;;;4960197;28;20071;-83
2022/12/08 18:47:27;;;;;;;20.88;10.25;;;4.60;99.90;;;;;;4865739;29;20033;-83
2022/12/08 18:54:06;;;;;;;20.52;10.10;;;4.60;99.90;;;;;;4775086;30;20120;-80
2022/12/08 19:07:13;;;;;;;21.33;10.55;;;4.70;99.90;;;;;;4841117;29;20066;-83
2022/12/08 19:10:37;;;;;;;20.20;9.93;;;5.50;99.90;;;;;;4758944;30;20049;-81
2022/12/08 19:14:14;;;;;;;20.77;10.00;;;4.60;99.90;;;;;;4771209;30;20036;-81
2022/12/08 19:21:19;;;;;;;23.67;10.55;;;4.60;99.90;;;;;;4784415;29;20469;-81
2022/12/08 19:28:39;;;;;;;22.25;10.45;;;4.60;99.90;;;;;;4687824;30;20053;-82
2022/12/08 20:05:21;;;;;;;22.02;11.13;;;4.50;99.90;;;;;;4724617;30;20489;-82
2022/12/08 20:35:08;;;;;;;25.67;12.55;;;4.40;99.90;;;;;;4993601;28;20033;-82
2022/12/08 20:38:04;;;;;;;25.55;11.68;;;4.40;99.90;;;;;;4943997;28;20086;-80
2022/12/08 20:41:22;;;;;;;22.00;12.00;;;4.40;99.90;;;;;;4964003;28;20110;-83
2022/12/08 20:44:23;;;;;;;22.52;11.48;;;4.30;99.90;;;;;;4994887;28;20031;-82
2022/12/08 20:47:55;;;;;;;24.13;12.00;;;4.40;99.90;;;;;;4989563;28;20046;-81
2022/12/08 22:21:01;;;;;;;30.42;16.85;;;4.30;99.90;;;;;;1051854;23;20397;-84
2022/12/08 22:51:50;;;;;;;26.83;13.82;;;4.20;99.90;;;;;;4986992;28;20063;-82
2022/12/08 22:54:17;;;;;;;21.83;11.63;;;4.20;99.90;;;;;;4972455;28;20031;-83
2022/12/08 22:56:43;;;;;;;27.20;11.73;;;;;;;;;;4971311;28;20490;-85
2022/12/08 22:59:09;;;;;;;24.83;12.48;;;;;;;;;;4980246;28;20031;-81
2022/12/08 23:01:35;;;;;;;23.92;11.93;;;4.10;99.90;;;;;;4985303;28;20058;-81
2022/12/08 23:04:01;;;;;;;26.77;12.52;;;;;;;;;;4986111;28;20034;-85
2022/12/08 23:06:28;;;;;;;21.73;11.18;;;4.00;99.90;;;;;;4983269;28;20102;-85
2022/12/08 23:08:54;;;;;;;26.65;12.65;;;4.10;99.90;;;;;;4997563;28;20030;-86
2022/12/08 23:11:22;;;;;;;25.75;12.50;;;6.10;99.90;;;;;;4970910;28;20261;-85
2022/12/08 23:13:48;;;;;;;23.55;12.55;;;5.90;99.90;;;;;;4965752;28;20066;-82
2022/12/08 23:16:14;;;;;;;27.75;13.57;;;4.10;99.90;;;;;;4969644;28;20155;-83
2022/12/08 23:18:41;;;;;;;27.40;12.52;;;5.50;99.90;;;;;;4969766;28;20055;-85
2022/12/08 23:21:12;;;;;;;25.05;12.30;;;4.00;99.90;;;;;;4968440;28;20038;-85
2022/12/08 23:23:38;;;;;;;26.40;12.18;;;4.00;99.90;;;;;;4967617;28;20483;-85
2022/12/08 23:26:18;;;;;;;23.77;11.38;;;3.90;99.90;;;;;;4984645;28;20033;-84
2022/12/08 23:28:44;;;;;;;26.33;12.20;;;5.90;99.90;;;;;;4969233;28;20438;-85
2022/12/08 23:31:09;;;;;;;25.58;11.77;;;4.60;99.90;;;;;;4967789;28;20119;-80
2022/12/08 23:33:35;;;;;;;26.27;12.45;;;4.00;99.90;;;;;;4968269;28;20035;-82
2022/12/08 23:36:01;;;;;;;26.02;12.43;;;3.90;99.90;;;;;;4965226;28;20031;-82
2022/12/08 23:38:27;;;;;;;26.38;12.13;;;;;;;;;;4983505;28;20047;-83
2022/12/08 23:40:52;;;;;;;25.38;12.73;;;3.90;99.90;;;;;;4980161;28;20566;-81
2022/12/08 23:43:18;;;;;;;26.20;12.88;;;3.80;99.90;;;;;;4968728;28;20022;-83
2022/12/08 23:45:45;;;;;;;24.08;12.32;;;5.50;99.90;;;;;;4967789;28;20035;-84
2022/12/08 23:48:11;;;;;;;27.58;12.73;;;3.80;99.90;;;;;;4967821;28;20023;-81
2022/12/08 23:50:36;;;;;;;25.77;12.65;;;5.90;99.90;;;;;;4981538;28;20109;-81
2022/12/08 23:53:02;;;;;;;29.88;12.75;;;3.50;99.90;;;;;;4962807;28;20049;-84
2022/12/08 23:55:27;;;;;;;28.83;13.48;;;4.80;99.90;;;;;;4981613;28;20042;-84
2022/12/08 23:57:53;;;;;;;28.70;13.10;;;6.20;99.90;;;;;;4969207;28;20049;-83
